sensor_id;sensor_type;location;lat;lon;timestamp;temperature;humidity
15452;DHT22;7827;53.594;9.938;2024-01-30T00:01:36;6.10;1.00
15452;DHT22;7827;53.594;9.938;2024-01-30T00:04:05;6.10;1.00
15452;DHT22;7827;53.594;9.938;2024-01-30T00:06:33;6.00;1.00
15452;DHT22;7827;53.594;9.938;2024-01-30T00:09:03;5.90;99.90
15452;DHT22;7827;53.594;9.938;2024-01-30T00:11:31;5.90;99.90
15452;DHT22;7827;53.594;9.938;2024-01-30T00:14:00;5.80;99.90
15452;DHT22;7827;53.594;9.938;2024-01-30T00:16:28;5.80;99.90
15452;DHT22;7827;53.594;9.938;2024-01-30T00:18:56;5.80;99.90
15452;DHT22;7827;53.594;9.938;2024-01-30T00:21:38;5.70;1.00
15452;DHT22;7827;53.594;9.938;2024-01-30T00:24:08;5.70;1.00
15452;DHT22;7827;53.594;9.938;2024-01-30T00:26:36;5.70;1.00
15452;DHT22;7827;53.594;9.938;2024-01-30T00:29:04;5.80;1.00
15452;DHT22;7827;53.594;9.938;2024-01-30T00:31:32;5.80;1.00
15452;DHT22;7827;53.594;9.938;2024-01-30T00:34:04;5.80;1.00
15452;DHT22;7827;53.594;9.938;2024-01-30T00:36:32;5.80;1.00
15452;DHT22;7827;53.594;9.938;2024-01-30T00:39:01;5.80;1.00
15452;DHT22;7827;53.594;9.938;2024-01-30T00:41:34;5.80;1.00
15452;DHT22;7827;53.594;9.938;2024-01-30T00:44:02;5.90;1.00
15452;DHT22;7827;53.594;9.938;2024-01-30T00:46:30;5.80;1.00
15452;DHT22;7827;53.594;9.938;2024-01-30T00:48:59;5.80;1.00
15452;DHT22;7827;53.594;9.938;2024-01-30T00:51:27;5.80;1.00
15452;DHT22;7827;53.594;9.938;2024-01-30T00:53:56;5.80;1.00
15452;DHT22;7827;53.594;9.938;2024-01-30T00:56:24;5.80;1.00
15452;DHT22;7827;53.594;9.938;2024-01-30T00:58:54;5.80;99.90
15452;DHT22;7827;53.594;9.938;2024-01-30T01:01:22;5.80;99.90
15452;DHT22;7827;53.594;9.938;2024-01-30T01:03:51;5.70;99.90
15452;DHT22;7827;53.594;9.938;2024-01-30T01:06:19;5.70;99.90
15452;DHT22;7827;53.594;9.938;2024-01-30T01:08:47;5.70;1.00
15452;DHT22;7827;53.594;9.938;2024-01-30T01:11:15;5.70;1.00
15452;DHT22;7827;53.594;9.938;2024-01-30T01:13:44;5.70;1.00
15452;DHT22;7827;53.594;9.938;2024-01-30T01:16:13;5.70;99.90
15452;DHT22;7827;53.594;9.938;2024-01-30T01:18:41;5.60;1.00
15452;DHT22;7827;53.594;9.938;2024-01-30T01:21:09;5.60;1.00
15452;DHT22;7827;53.594;9.938;2024-01-30T01:23:38;5.60;1.00
15452;DHT22;7827;53.594;9.938;2024-01-30T01:26:07;5.60;1.00
15452;DHT22;7827;53.594;9.938;2024-01-30T01:28:36;5.60;1.00
15452;DHT22;7827;53.594;9.938;2024-01-30T01:31:04;5.60;1.00
15452;DHT22;7827;53.594;9.938;2024-01-30T01:33:34;5.60;1.00
15452;DHT22;7827;53.594;9.938;2024-01-30T01:36:04;5.60;1.00
15452;DHT22;7827;53.594;9.938;2024-01-30T01:38:33;5.60;1.00
15452;DHT22;7827;53.594;9.938;2024-01-30T01:41:01;5.60;1.00
15452;DHT22;7827;53.594;9.938;2024-01-30T01:43:29;5.60;1.00
15452;DHT22;7827;53.594;9.938;2024-01-30T01:45:58;5.70;1.00
15452;DHT22;7827;53.594;9.938;2024-01-30T01:48:26;5.80;22.00
15452;DHT22;7827;53.594;9.938;2024-01-30T01:50:56;5.90;99.90
15452;DHT22;7827;53.594;9.938;2024-01-30T01:53:25;6.10;99.90
15452;DHT22;7827;53.594;9.938;2024-01-30T01:55:55;6.30;40.60
15452;DHT22;7827;53.594;9.938;2024-01-30T01:58:26;6.40;1.00
15452;DHT22;7827;53.594;9.938;2024-01-30T02:00:57;6.40;1.00
15452;DHT22;7827;53.594;9.938;2024-01-30T02:03:26;6.40;99.90
15452;DHT22;7827;53.594;9.938;2024-01-30T02:05:56;6.40;64.70
15452;DHT22;7827;53.594;9.938;2024-01-30T02:08:24;6.40;1.00
15452;DHT22;7827;53.594;9.938;2024-01-30T02:10:52;6.30;1.00
15452;DHT22;7827;53.594;9.938;2024-01-30T02:13:21;6.30;1.00
15452;DHT22;7827;53.594;9.938;2024-01-30T02:15:50;6.30;1.00
15452;DHT22;7827;53.594;9.938;2024-01-30T02:18:20;6.20;1.00
15452;DHT22;7827;53.594;9.938;2024-01-30T02:21:06;6.10;1.00
15452;DHT22;7827;53.594;9.938;2024-01-30T02:23:34;6.10;1.00
15452;DHT22;7827;53.594;9.938;2024-01-30T02:26:02;6.10;1.00
15452;DHT22;7827;53.594;9.938;2024-01-30T02:28:30;6.00;1.00
15452;DHT22;7827;53.594;9.938;2024-01-30T02:30:58;5.90;1.00
15452;DHT22;7827;53.594;9.938;2024-01-30T02:33:26;5.90;1.00
15452;DHT22;7827;53.594;9.938;2024-01-30T02:35:54;5.80;46.60
15452;DHT22;7827;53.594;9.938;2024-01-30T02:38:24;5.80;99.90
15452;DHT22;7827;53.594;9.938;2024-01-30T02:40:53;5.80;99.90
15452;DHT22;7827;53.594;9.938;2024-01-30T02:43:23;5.80;99.90
15452;DHT22;7827;53.594;9.938;2024-01-30T02:45:51;5.70;99.90
15452;DHT22;7827;53.594;9.938;2024-01-30T02:48:19;5.70;99.90
15452;DHT22;7827;53.594;9.938;2024-01-30T02:50:48;5.70;99.90
15452;DHT22;7827;53.594;9.938;2024-01-30T02:53:16;5.80;99.90
15452;DHT22;7827;53.594;9.938;2024-01-30T02:55:45;5.80;99.90
15452;DHT22;7827;53.594;9.938;2024-01-30T02:58:13;5.80;99.90
15452;DHT22;7827;53.594;9.938;2024-01-30T03:00:41;5.80;99.90
15452;DHT22;7827;53.594;9.938;2024-01-30T03:03:10;5.70;99.90
15452;DHT22;7827;53.594;9.938;2024-01-30T03:05:38;5.70;99.90
15452;DHT22;7827;53.594;9.938;2024-01-30T03:08:06;5.70;99.90
15452;DHT22;7827;53.594;9.938;2024-01-30T03:10:34;5.70;99.90
15452;DHT22;7827;53.594;9.938;2024-01-30T03:13:04;5.70;99.90
15452;DHT22;7827;53.594;9.938;2024-01-30T03:15:33;5.70;99.90
15452;DHT22;7827;53.594;9.938;2024-01-30T03:18:02;5.70;99.90
15452;DHT22;7827;53.594;9.938;2024-01-30T03:20:30;5.70;99.90
15452;DHT22;7827;53.594;9.938;2024-01-30T03:22:59;5.60;99.90
15452;DHT22;7827;53.594;9.938;2024-01-30T03:25:28;5.60;99.90
15452;DHT22;7827;53.594;9.938;2024-01-30T03:27:56;5.60;99.90
15452;DHT22;7827;53.594;9.938;2024-01-30T03:30:25;5.60;99.90
15452;DHT22;7827;53.594;9.938;2024-01-30T03:32:54;5.60;99.90
15452;DHT22;7827;53.594;9.938;2024-01-30T03:35:22;5.50;99.90
15452;DHT22;7827;53.594;9.938;2024-01-30T03:37:50;5.60;99.90
15452;DHT22;7827;53.594;9.938;2024-01-30T03:40:18;5.60;99.90
15452;DHT22;7827;53.594;9.938;2024-01-30T03:42:46;5.60;99.90
15452;DHT22;7827;53.594;9.938;2024-01-30T03:45:15;5.50;99.90
15452;DHT22;7827;53.594;9.938;2024-01-30T03:47:45;5.60;99.90
15452;DHT22;7827;53.594;9.938;2024-01-30T03:50:13;5.70;89.80
15452;DHT22;7827;53.594;9.938;2024-01-30T03:52:41;5.60;18.10
15452;DHT22;7827;53.594;9.938;2024-01-30T03:55:09;5.60;99.90
15452;DHT22;7827;53.594;9.938;2024-01-30T03:57:37;5.50;99.90
15452;DHT22;7827;53.594;9.938;2024-01-30T04:00:07;5.50;99.90
15452;DHT22;7827;53.594;9.938;2024-01-30T04:02:39;5.50;99.90
15452;DHT22;7827;53.594;9.938;2024-01-30T04:05:09;5.50;99.90
15452;DHT22;7827;53.594;9.938;2024-01-30T04:07:37;5.50;99.90
15452;DHT22;7827;53.594;9.938;2024-01-30T04:10:06;5.50;96.50
15452;DHT22;7827;53.594;9.938;2024-01-30T04:12:35;5.40;99.90
15452;DHT22;7827;53.594;9.938;2024-01-30T04:15:04;5.40;99.90
15452;DHT22;7827;53.594;9.938;2024-01-30T04:17:32;5.40;99.90
15452;DHT22;7827;53.594;9.938;2024-01-30T04:20:00;5.40;99.90
15452;DHT22;7827;53.594;9.938;2024-01-30T04:22:31;5.40;99.90
15452;DHT22;7827;53.594;9.938;2024-01-30T04:24:59;5.40;99.90
15452;DHT22;7827;53.594;9.938;2024-01-30T04:27:27;5.40;99.90
15452;DHT22;7827;53.594;9.938;2024-01-30T04:29:55;5.40;99.90
15452;DHT22;7827;53.594;9.938;2024-01-30T04:32:23;5.30;99.90
15452;DHT22;7827;53.594;9.938;2024-01-30T04:34:52;5.30;99.90
15452;DHT22;7827;53.594;9.938;2024-01-30T04:37:20;5.30;99.90
15452;DHT22;7827;53.594;9.938;2024-01-30T04:39:50;5.30;99.90
15452;DHT22;7827;53.594;9.938;2024-01-30T04:42:18;5.30;99.90
15452;DHT22;7827;53.594;9.938;2024-01-30T04:44:46;5.20;99.90
15452;DHT22;7827;53.594;9.938;2024-01-30T04:47:14;5.30;1.00
15452;DHT22;7827;53.594;9.938;2024-01-30T04:49:43;5.30;1.00
15452;DHT22;7827;53.594;9.938;2024-01-30T04:52:11;5.20;99.90
15452;DHT22;7827;53.594;9.938;2024-01-30T04:54:39;5.20;1.00
15452;DHT22;7827;53.594;9.938;2024-01-30T04:57:09;5.20;1.00
15452;DHT22;7827;53.594;9.938;2024-01-30T04:59:39;5.20;1.00
15452;DHT22;7827;53.594;9.938;2024-01-30T05:02:07;5.20;1.00
15452;DHT22;7827;53.594;9.938;2024-01-30T05:04:35;5.20;1.00
15452;DHT22;7827;53.594;9.938;2024-01-30T05:07:04;5.20;1.00
15452;DHT22;7827;53.594;9.938;2024-01-30T05:09:32;5.20;1.00
15452;DHT22;7827;53.594;9.938;2024-01-30T05:12:01;5.20;1.00
15452;DHT22;7827;53.594;9.938;2024-01-30T05:14:31;5.30;1.00
15452;DHT22;7827;53.594;9.938;2024-01-30T05:16:59;5.30;1.00
15452;DHT22;7827;53.594;9.938;2024-01-30T05:19:27;5.30;1.00
15452;DHT22;7827;53.594;9.938;2024-01-30T05:21:55;5.30;1.00
15452;DHT22;7827;53.594;9.938;2024-01-30T05:24:23;5.30;1.00
15452;DHT22;7827;53.594;9.938;2024-01-30T05:26:54;5.30;1.00
15452;DHT22;7827;53.594;9.938;2024-01-30T05:29:22;5.30;1.00
15452;DHT22;7827;53.594;9.938;2024-01-30T05:31:51;5.20;1.00
15452;DHT22;7827;53.594;9.938;2024-01-30T05:34:19;5.30;1.00
15452;DHT22;7827;53.594;9.938;2024-01-30T05:36:48;5.30;1.00
15452;DHT22;7827;53.594;9.938;2024-01-30T05:39:16;5.20;1.00
15452;DHT22;7827;53.594;9.938;2024-01-30T05:41:47;5.30;1.00
15452;DHT22;7827;53.594;9.938;2024-01-30T05:44:15;5.30;1.00
15452;DHT22;7827;53.594;9.938;2024-01-30T05:46:43;5.40;1.00
15452;DHT22;7827;53.594;9.938;2024-01-30T05:49:13;5.40;1.00
15452;DHT22;7827;53.594;9.938;2024-01-30T05:51:41;5.40;1.00
15452;DHT22;7827;53.594;9.938;2024-01-30T05:54:09;5.40;1.00
15452;DHT22;7827;53.594;9.938;2024-01-30T05:56:40;5.30;1.00
15452;DHT22;7827;53.594;9.938;2024-01-30T05:59:08;5.30;1.00
15452;DHT22;7827;53.594;9.938;2024-01-30T06:01:36;5.40;1.00
15452;DHT22;7827;53.594;9.938;2024-01-30T06:04:05;5.40;1.00
15452;DHT22;7827;53.594;9.938;2024-01-30T06:06:34;5.50;1.00
15452;DHT22;7827;53.594;9.938;2024-01-30T06:09:02;5.50;1.00
15452;DHT22;7827;53.594;9.938;2024-01-30T06:11:31;5.60;1.00
15452;DHT22;7827;53.594;9.938;2024-01-30T06:13:59;5.50;1.00
15452;DHT22;7827;53.594;9.938;2024-01-30T06:16:27;5.60;1.00
15452;DHT22;7827;53.594;9.938;2024-01-30T06:18:56;5.70;1.00
15452;DHT22;7827;53.594;9.938;2024-01-30T06:21:26;5.60;1.00
15452;DHT22;7827;53.594;9.938;2024-01-30T06:23:55;5.60;1.00
15452;DHT22;7827;53.594;9.938;2024-01-30T06:26:23;5.60;1.00
15452;DHT22;7827;53.594;9.938;2024-01-30T06:28:51;5.60;1.00
15452;DHT22;7827;53.594;9.938;2024-01-30T06:31:20;5.60;1.00
15452;DHT22;7827;53.594;9.938;2024-01-30T06:33:48;5.60;1.00
15452;DHT22;7827;53.594;9.938;2024-01-30T06:36:17;5.70;1.00
15452;DHT22;7827;53.594;9.938;2024-01-30T06:38:45;5.70;1.00
15452;DHT22;7827;53.594;9.938;2024-01-30T06:41:15;5.80;1.00
15452;DHT22;7827;53.594;9.938;2024-01-30T06:43:43;5.90;1.00
15452;DHT22;7827;53.594;9.938;2024-01-30T06:46:12;5.90;1.00
15452;DHT22;7827;53.594;9.938;2024-01-30T06:48:41;5.90;1.00
15452;DHT22;7827;53.594;9.938;2024-01-30T06:51:11;6.00;1.00
15452;DHT22;7827;53.594;9.938;2024-01-30T06:53:44;6.00;1.00
15452;DHT22;7827;53.594;9.938;2024-01-30T06:56:12;6.00;1.00
15452;DHT22;7827;53.594;9.938;2024-01-30T06:58:41;6.00;1.00
15452;DHT22;7827;53.594;9.938;2024-01-30T07:01:09;6.00;1.00
15452;DHT22;7827;53.594;9.938;2024-01-30T07:03:38;5.90;1.00
15452;DHT22;7827;53.594;9.938;2024-01-30T07:06:07;6.00;1.00
15452;DHT22;7827;53.594;9.938;2024-01-30T07:08:35;6.00;1.00
15452;DHT22;7827;53.594;9.938;2024-01-30T07:11:04;6.00;1.00
15452;DHT22;7827;53.594;9.938;2024-01-30T07:13:32;5.90;1.00
15452;DHT22;7827;53.594;9.938;2024-01-30T07:16:02;5.80;1.00
15452;DHT22;7827;53.594;9.938;2024-01-30T07:18:30;5.80;1.00
15452;DHT22;7827;53.594;9.938;2024-01-30T07:20:58;5.80;1.00
15452;DHT22;7827;53.594;9.938;2024-01-30T07:23:29;5.90;1.00
15452;DHT22;7827;53.594;9.938;2024-01-30T07:25:57;5.90;1.00
15452;DHT22;7827;53.594;9.938;2024-01-30T07:28:25;5.80;1.00
15452;DHT22;7827;53.594;9.938;2024-01-30T07:30:53;5.90;1.00
15452;DHT22;7827;53.594;9.938;2024-01-30T07:33:23;5.90;1.00
15452;DHT22;7827;53.594;9.938;2024-01-30T07:35:52;5.80;1.00
15452;DHT22;7827;53.594;9.938;2024-01-30T07:38:20;5.80;1.00
15452;DHT22;7827;53.594;9.938;2024-01-30T07:40:49;5.90;9.10
15452;DHT22;7827;53.594;9.938;2024-01-30T07:43:17;5.90;1.00
15452;DHT22;7827;53.594;9.938;2024-01-30T07:45:47;6.00;1.00
15452;DHT22;7827;53.594;9.938;2024-01-30T07:48:15;6.00;1.00
15452;DHT22;7827;53.594;9.938;2024-01-30T07:50:44;6.00;1.00
15452;DHT22;7827;53.594;9.938;2024-01-30T07:53:13;6.00;1.00
15452;DHT22;7827;53.594;9.938;2024-01-30T07:55:41;6.00;1.00
15452;DHT22;7827;53.594;9.938;2024-01-30T08:02:29;6.10;1.00
15452;DHT22;7827;53.594;9.938;2024-01-30T08:05:00;6.20;1.00
15452;DHT22;7827;53.594;9.938;2024-01-30T08:07:29;6.20;1.00
15452;DHT22;7827;53.594;9.938;2024-01-30T08:09:58;6.30;1.00
15452;DHT22;7827;53.594;9.938;2024-01-30T08:12:26;6.40;1.00
15452;DHT22;7827;53.594;9.938;2024-01-30T08:14:54;6.40;1.00
15452;DHT22;7827;53.594;9.938;2024-01-30T08:17:22;6.50;1.00
15452;DHT22;7827;53.594;9.938;2024-01-30T08:19:51;6.60;1.00
15452;DHT22;7827;53.594;9.938;2024-01-30T08:22:19;6.70;1.00
15452;DHT22;7827;53.594;9.938;2024-01-30T08:24:49;6.70;1.00
15452;DHT22;7827;53.594;9.938;2024-01-30T08:27:17;6.80;1.00
15452;DHT22;7827;53.594;9.938;2024-01-30T08:29:45;6.90;1.00
15452;DHT22;7827;53.594;9.938;2024-01-30T08:32:13;6.90;99.90
15452;DHT22;7827;53.594;9.938;2024-01-30T08:34:41;6.90;99.90
15452;DHT22;7827;53.594;9.938;2024-01-30T08:37:09;6.90;99.90
15452;DHT22;7827;53.594;9.938;2024-01-30T08:39:38;6.90;99.90
15452;DHT22;7827;53.594;9.938;2024-01-30T08:42:07;6.90;99.90
15452;DHT22;7827;53.594;9.938;2024-01-30T08:44:36;7.00;91.50
15452;DHT22;7827;53.594;9.938;2024-01-30T08:47:05;7.00;1.00
15452;DHT22;7827;53.594;9.938;2024-01-30T08:49:33;7.00;29.50
15452;DHT22;7827;53.594;9.938;2024-01-30T08:52:02;7.10;1.00
15452;DHT22;7827;53.594;9.938;2024-01-30T08:54:30;7.10;1.00
15452;DHT22;7827;53.594;9.938;2024-01-30T08:57:01;7.10;1.00
15452;DHT22;7827;53.594;9.938;2024-01-30T08:59:30;7.00;35.70
15452;DHT22;7827;53.594;9.938;2024-01-30T09:01:58;7.00;1.00
15452;DHT22;7827;53.594;9.938;2024-01-30T09:04:38;6.90;43.80
15452;DHT22;7827;53.594;9.938;2024-01-30T09:07:08;6.90;99.90
15452;DHT22;7827;53.594;9.938;2024-01-30T09:09:38;6.90;99.90
15452;DHT22;7827;53.594;9.938;2024-01-30T09:12:07;7.00;99.90
15452;DHT22;7827;53.594;9.938;2024-01-30T09:14:39;7.00;99.90
15452;DHT22;7827;53.594;9.938;2024-01-30T09:17:07;7.00;99.90
15452;DHT22;7827;53.594;9.938;2024-01-30T09:19:36;7.10;99.90
15452;DHT22;7827;53.594;9.938;2024-01-30T09:22:04;7.10;99.90
15452;DHT22;7827;53.594;9.938;2024-01-30T09:24:33;7.10;99.90
15452;DHT22;7827;53.594;9.938;2024-01-30T09:27:01;7.10;99.90
15452;DHT22;7827;53.594;9.938;2024-01-30T09:29:29;7.10;99.90
15452;DHT22;7827;53.594;9.938;2024-01-30T09:31:59;7.10;99.90
15452;DHT22;7827;53.594;9.938;2024-01-30T09:34:27;7.10;99.90
15452;DHT22;7827;53.594;9.938;2024-01-30T09:36:56;7.10;99.90
15452;DHT22;7827;53.594;9.938;2024-01-30T09:39:24;7.10;99.90
15452;DHT22;7827;53.594;9.938;2024-01-30T09:42:00;7.10;99.90
15452;DHT22;7827;53.594;9.938;2024-01-30T09:44:30;7.10;59.90
15452;DHT22;7827;53.594;9.938;2024-01-30T09:47:00;7.10;99.90
15452;DHT22;7827;53.594;9.938;2024-01-30T09:49:32;7.20;1.00
15452;DHT22;7827;53.594;9.938;2024-01-30T09:52:01;7.20;99.90
15452;DHT22;7827;53.594;9.938;2024-01-30T09:54:30;7.30;1.00
15452;DHT22;7827;53.594;9.938;2024-01-30T09:57:03;7.30;33.30
15452;DHT22;7827;53.594;9.938;2024-01-30T09:59:31;7.30;1.50
15452;DHT22;7827;53.594;9.938;2024-01-30T10:02:01;7.40;92.00
15452;DHT22;7827;53.594;9.938;2024-01-30T10:04:31;7.50;1.00
15452;DHT22;7827;53.594;9.938;2024-01-30T10:07:01;7.50;1.00
15452;DHT22;7827;53.594;9.938;2024-01-30T10:09:32;7.60;1.00
15452;DHT22;7827;53.594;9.938;2024-01-30T10:12:02;7.60;1.00
15452;DHT22;7827;53.594;9.938;2024-01-30T10:14:31;7.70;1.00
15452;DHT22;7827;53.594;9.938;2024-01-30T10:17:03;7.70;1.00
15452;DHT22;7827;53.594;9.938;2024-01-30T10:19:43;7.80;1.00
15452;DHT22;7827;53.594;9.938;2024-01-30T10:22:12;7.80;1.00
15452;DHT22;7827;53.594;9.938;2024-01-30T10:24:40;7.80;1.00
15452;DHT22;7827;53.594;9.938;2024-01-30T10:27:08;7.90;1.00
15452;DHT22;7827;53.594;9.938;2024-01-30T10:29:37;8.00;1.00
15452;DHT22;7827;53.594;9.938;2024-01-30T10:32:07;8.10;1.00
15452;DHT22;7827;53.594;9.938;2024-01-30T10:34:36;8.10;1.00
15452;DHT22;7827;53.594;9.938;2024-01-30T10:37:08;8.10;1.00
15452;DHT22;7827;53.594;9.938;2024-01-30T10:39:39;8.10;1.00
15452;DHT22;7827;53.594;9.938;2024-01-30T10:42:12;8.20;1.00
15452;DHT22;7827;53.594;9.938;2024-01-30T10:44:48;8.30;1.00
15452;DHT22;7827;53.594;9.938;2024-01-30T10:47:26;8.40;99.90
15452;DHT22;7827;53.594;9.938;2024-01-30T10:49:56;8.50;1.00
15452;DHT22;7827;53.594;9.938;2024-01-30T10:52:24;8.50;1.00
15452;DHT22;7827;53.594;9.938;2024-01-30T10:54:55;8.50;1.00
15452;DHT22;7827;53.594;9.938;2024-01-30T10:57:24;8.70;1.00
15452;DHT22;7827;53.594;9.938;2024-01-30T10:59:56;8.70;99.90
15452;DHT22;7827;53.594;9.938;2024-01-30T11:02:26;8.80;1.00
15452;DHT22;7827;53.594;9.938;2024-01-30T11:04:56;8.90;99.90
15452;DHT22;7827;53.594;9.938;2024-01-30T11:07:26;9.00;99.90
15452;DHT22;7827;53.594;9.938;2024-01-30T11:10:01;9.10;1.00
15452;DHT22;7827;53.594;9.938;2024-01-30T11:12:33;9.30;99.90
15452;DHT22;7827;53.594;9.938;2024-01-30T11:15:02;9.40;1.00
15452;DHT22;7827;53.594;9.938;2024-01-30T11:17:44;9.40;1.00
15452;DHT22;7827;53.594;9.938;2024-01-30T11:20:15;9.50;1.00
15452;DHT22;7827;53.594;9.938;2024-01-30T11:22:45;9.40;99.00
15452;DHT22;7827;53.594;9.938;2024-01-30T11:25:14;9.50;1.00
15452;DHT22;7827;53.594;9.938;2024-01-30T11:27:44;9.60;1.00
15452;DHT22;7827;53.594;9.938;2024-01-30T11:30:21;9.60;1.00
15452;DHT22;7827;53.594;9.938;2024-01-30T11:33:01;9.60;41.00
15452;DHT22;7827;53.594;9.938;2024-01-30T11:35:32;9.80;99.90
15452;DHT22;7827;53.594;9.938;2024-01-30T11:38:02;9.90;1.00
15452;DHT22;7827;53.594;9.938;2024-01-30T11:40:31;10.10;1.00
15452;DHT22;7827;53.594;9.938;2024-01-30T11:43:02;10.10;1.00
15452;DHT22;7827;53.594;9.938;2024-01-30T11:45:32;10.20;1.00
15452;DHT22;7827;53.594;9.938;2024-01-30T11:48:01;10.20;99.90
15452;DHT22;7827;53.594;9.938;2024-01-30T11:50:31;10.10;1.00
15452;DHT22;7827;53.594;9.938;2024-01-30T11:53:00;10.10;1.00
15452;DHT22;7827;53.594;9.938;2024-01-30T11:55:29;10.10;1.00
15452;DHT22;7827;53.594;9.938;2024-01-30T11:58:01;10.10;1.00
15452;DHT22;7827;53.594;9.938;2024-01-30T12:00:31;10.10;1.00
15452;DHT22;7827;53.594;9.938;2024-01-30T12:03:02;10.10;1.00
15452;DHT22;7827;53.594;9.938;2024-01-30T12:05:32;10.10;1.00
15452;DHT22;7827;53.594;9.938;2024-01-30T12:08:00;10.10;99.90
15452;DHT22;7827;53.594;9.938;2024-01-30T12:10:29;10.10;99.90
15452;DHT22;7827;53.594;9.938;2024-01-30T12:12:58;10.10;34.20
15452;DHT22;7827;53.594;9.938;2024-01-30T12:15:26;10.10;15.80
15452;DHT22;7827;53.594;9.938;2024-01-30T12:18:05;10.20;1.00
15452;DHT22;7827;53.594;9.938;2024-01-30T12:20:34;10.30;1.00
15452;DHT22;7827;53.594;9.938;2024-01-30T12:23:04;10.20;1.00
15452;DHT22;7827;53.594;9.938;2024-01-30T12:25:32;10.20;22.50
15452;DHT22;7827;53.594;9.938;2024-01-30T12:28:01;10.20;1.00
15452;DHT22;7827;53.594;9.938;2024-01-30T12:30:29;10.20;1.00
15452;DHT22;7827;53.594;9.938;2024-01-30T12:32:58;10.30;99.20
15452;DHT22;7827;53.594;9.938;2024-01-30T12:35:28;10.40;1.00
15452;DHT22;7827;53.594;9.938;2024-01-30T12:38:00;10.50;1.00
15452;DHT22;7827;53.594;9.938;2024-01-30T12:40:28;10.70;1.00
15452;DHT22;7827;53.594;9.938;2024-01-30T12:42:57;10.60;1.00
15452;DHT22;7827;53.594;9.938;2024-01-30T12:45:25;10.60;1.00
15452;DHT22;7827;53.594;9.938;2024-01-30T12:47:54;10.40;1.00
15452;DHT22;7827;53.594;9.938;2024-01-30T12:50:22;10.60;1.00
15452;DHT22;7827;53.594;9.938;2024-01-30T12:52:52;10.50;1.00
15452;DHT22;7827;53.594;9.938;2024-01-30T12:55:20;10.40;1.00
15452;DHT22;7827;53.594;9.938;2024-01-30T12:57:48;10.40;1.00
15452;DHT22;7827;53.594;9.938;2024-01-30T13:00:17;10.30;18.80
15452;DHT22;7827;53.594;9.938;2024-01-30T13:02:46;10.40;27.90
15452;DHT22;7827;53.594;9.938;2024-01-30T13:05:15;10.60;1.00
15452;DHT22;7827;53.594;9.938;2024-01-30T13:07:44;10.60;1.00
15452;DHT22;7827;53.594;9.938;2024-01-30T13:10:13;10.40;1.00
15452;DHT22;7827;53.594;9.938;2024-01-30T13:12:42;10.40;3.90
15452;DHT22;7827;53.594;9.938;2024-01-30T13:15:10;10.40;4.20
15452;DHT22;7827;53.594;9.938;2024-01-30T13:17:39;10.40;93.10
15452;DHT22;7827;53.594;9.938;2024-01-30T13:20:09;10.40;99.90
15452;DHT22;7827;53.594;9.938;2024-01-30T13:22:39;10.40;99.90
15452;DHT22;7827;53.594;9.938;2024-01-30T13:25:07;10.40;99.90
15452;DHT22;7827;53.594;9.938;2024-01-30T13:27:37;10.30;99.90
15452;DHT22;7827;53.594;9.938;2024-01-30T13:30:08;10.40;99.90
15452;DHT22;7827;53.594;9.938;2024-01-30T13:32:37;10.50;99.90
15452;DHT22;7827;53.594;9.938;2024-01-30T13:35:06;10.40;99.90
15452;DHT22;7827;53.594;9.938;2024-01-30T13:37:35;10.40;99.90
15452;DHT22;7827;53.594;9.938;2024-01-30T13:40:05;10.30;99.90
15452;DHT22;7827;53.594;9.938;2024-01-30T13:42:41;10.30;99.90
15452;DHT22;7827;53.594;9.938;2024-01-30T13:45:09;10.20;1.00
15452;DHT22;7827;53.594;9.938;2024-01-30T13:47:38;10.10;1.00
15452;DHT22;7827;53.594;9.938;2024-01-30T13:50:06;10.00;1.00
15452;DHT22;7827;53.594;9.938;2024-01-30T13:52:37;10.00;1.00
15452;DHT22;7827;53.594;9.938;2024-01-30T13:55:11;10.00;7.30
15452;DHT22;7827;53.594;9.938;2024-01-30T13:57:41;10.00;91.40
15452;DHT22;7827;53.594;9.938;2024-01-30T14:00:10;10.00;99.90
15452;DHT22;7827;53.594;9.938;2024-01-30T14:02:40;10.00;99.90
15452;DHT22;7827;53.594;9.938;2024-01-30T14:05:09;9.90;99.90
15452;DHT22;7827;53.594;9.938;2024-01-30T14:07:37;10.00;99.90
15452;DHT22;7827;53.594;9.938;2024-01-30T14:10:07;10.00;99.90
15452;DHT22;7827;53.594;9.938;2024-01-30T14:12:42;9.90;99.90
15452;DHT22;7827;53.594;9.938;2024-01-30T14:15:12;9.90;99.90
15452;DHT22;7827;53.594;9.938;2024-01-30T14:17:54;9.90;99.90
15452;DHT22;7827;53.594;9.938;2024-01-30T14:20:23;10.00;99.90
15452;DHT22;7827;53.594;9.938;2024-01-30T14:22:51;10.00;99.90
15452;DHT22;7827;53.594;9.938;2024-01-30T14:25:22;10.00;99.90
15452;DHT22;7827;53.594;9.938;2024-01-30T14:27:52;10.00;99.90
15452;DHT22;7827;53.594;9.938;2024-01-30T14:30:21;10.00;99.90
15452;DHT22;7827;53.594;9.938;2024-01-30T14:32:49;10.00;99.90
15452;DHT22;7827;53.594;9.938;2024-01-30T14:35:18;10.10;99.90
15452;DHT22;7827;53.594;9.938;2024-01-30T14:37:47;10.10;99.90
15452;DHT22;7827;53.594;9.938;2024-01-30T14:40:15;10.20;99.90
15452;DHT22;7827;53.594;9.938;2024-01-30T14:42:44;10.10;99.90
15452;DHT22;7827;53.594;9.938;2024-01-30T14:45:13;10.10;99.90
15452;DHT22;7827;53.594;9.938;2024-01-30T14:47:43;10.20;99.90
15452;DHT22;7827;53.594;9.938;2024-01-30T14:50:11;10.20;99.90
15452;DHT22;7827;53.594;9.938;2024-01-30T14:52:39;10.20;99.90
15452;DHT22;7827;53.594;9.938;2024-01-30T14:55:08;10.20;99.90
15452;DHT22;7827;53.594;9.938;2024-01-30T14:57:36;10.10;99.90
15452;DHT22;7827;53.594;9.938;2024-01-30T15:00:06;10.20;99.90
15452;DHT22;7827;53.594;9.938;2024-01-30T15:02:37;10.10;99.90
15452;DHT22;7827;53.594;9.938;2024-01-30T15:05:06;10.10;99.90
15452;DHT22;7827;53.594;9.938;2024-01-30T15:07:34;10.20;99.90
15452;DHT22;7827;53.594;9.938;2024-01-30T15:10:07;10.20;99.90
15452;DHT22;7827;53.594;9.938;2024-01-30T15:12:37;10.10;99.90
15452;DHT22;7827;53.594;9.938;2024-01-30T15:15:07;10.20;99.90
15452;DHT22;7827;53.594;9.938;2024-01-30T15:17:38;10.20;99.90
15452;DHT22;7827;53.594;9.938;2024-01-30T15:20:07;10.20;99.90
15452;DHT22;7827;53.594;9.938;2024-01-30T15:22:36;10.30;99.90
15452;DHT22;7827;53.594;9.938;2024-01-30T15:25:05;10.20;99.90
15452;DHT22;7827;53.594;9.938;2024-01-30T15:27:34;10.30;99.90
15452;DHT22;7827;53.594;9.938;2024-01-30T15:30:02;10.30;99.90
15452;DHT22;7827;53.594;9.938;2024-01-30T15:32:31;10.30;99.90
15452;DHT22;7827;53.594;9.938;2024-01-30T15:35:01;10.30;99.90
15452;DHT22;7827;53.594;9.938;2024-01-30T15:37:31;10.20;99.90
15452;DHT22;7827;53.594;9.938;2024-01-30T15:39:59;10.30;99.90
15452;DHT22;7827;53.594;9.938;2024-01-30T15:42:28;10.30;99.90
15452;DHT22;7827;53.594;9.938;2024-01-30T15:44:56;10.30;99.90
15452;DHT22;7827;53.594;9.938;2024-01-30T15:47:25;10.30;1.00
15452;DHT22;7827;53.594;9.938;2024-01-30T15:49:53;10.20;1.00
15452;DHT22;7827;53.594;9.938;2024-01-30T15:52:23;10.30;1.00
15452;DHT22;7827;53.594;9.938;2024-01-30T15:54:52;10.30;1.00
15452;DHT22;7827;53.594;9.938;2024-01-30T15:57:20;10.30;1.00
15452;DHT22;7827;53.594;9.938;2024-01-30T15:59:48;10.30;1.00
15452;DHT22;7827;53.594;9.938;2024-01-30T16:02:16;10.30;1.00
15452;DHT22;7827;53.594;9.938;2024-01-30T16:04:46;10.30;1.00
15452;DHT22;7827;53.594;9.938;2024-01-30T16:07:14;10.30;1.00
15452;DHT22;7827;53.594;9.938;2024-01-30T16:09:44;10.30;1.00
15452;DHT22;7827;53.594;9.938;2024-01-30T16:12:12;10.30;1.00
15452;DHT22;7827;53.594;9.938;2024-01-30T16:14:40;10.30;1.00
15452;DHT22;7827;53.594;9.938;2024-01-30T16:17:09;10.20;1.00
15452;DHT22;7827;53.594;9.938;2024-01-30T16:19:37;10.20;1.00
15452;DHT22;7827;53.594;9.938;2024-01-30T16:22:10;10.20;1.00
15452;DHT22;7827;53.594;9.938;2024-01-30T16:24:38;10.30;1.00